createdAt,value
2019-02-28T00:00:48.109Z,10.45
2019-02-28T00:01:48.115Z,10.43
2019-02-28T00:02:48.056Z,10.39
2019-02-28T00:03:48.035Z,10.46
2019-02-28T00:04:48.014Z,10.33
2019-02-28T00:05:47.991Z,10.34
2019-02-28T00:06:47.978Z,10.38
2019-02-28T00:07:49.689Z,10.39
2019-02-28T00:08:47.926Z,10.33
2019-02-28T00:09:47.903Z,10.33
2019-02-28T00:10:47.892Z,10.36
2019-02-28T00:11:47.860Z,10.31
2019-02-28T00:12:48.561Z,10.38
2019-02-28T00:13:47.826Z,10.18
2019-02-28T00:14:47.795Z,10.30
2019-02-28T00:15:47.772Z,10.23
2019-02-28T00:16:47.752Z,10.15
2019-02-28T00:17:47.734Z,10.09
2019-02-28T00:18:49.972Z,10.18
2019-02-28T00:19:47.693Z,10.15
2019-02-28T00:20:47.664Z,10.10
2019-02-28T00:21:47.642Z,10.13
2019-02-28T00:22:49.227Z,10.17
2019-02-28T00:23:47.602Z,10.21
2019-02-28T00:24:47.589Z,10.10
2019-02-28T00:25:47.553Z,10.20
2019-02-28T00:26:47.947Z,10.20
2019-02-28T00:27:47.513Z,10.20
2019-02-28T00:28:47.493Z,10.28
2019-02-28T00:29:47.466Z,10.21
2019-02-28T00:30:47.455Z,10.13
2019-02-28T00:31:50.174Z,10.13
2019-02-28T00:32:47.454Z,10.23
2019-02-28T00:33:47.378Z,10.18
2019-02-28T00:34:47.355Z,10.20
2019-02-28T00:35:47.338Z,10.21
2019-02-28T00:36:47.317Z,10.18
2019-02-28T00:37:47.289Z,10.10
2019-02-28T00:38:47.276Z,10.20
2019-02-28T00:39:47.260Z,10.17
2019-02-28T00:40:47.229Z,10.20
2019-02-28T00:41:47.203Z,10.20
2019-02-28T00:42:48.083Z,10.17
2019-02-28T00:43:47.158Z,10.13
2019-02-28T00:44:47.138Z,10.13
2019-02-28T00:45:47.114Z,10.05
2019-02-28T00:46:47.091Z,10.12
2019-02-28T00:47:47.682Z,10.05
2019-02-28T00:48:47.061Z,10.06
2019-02-28T00:49:47.022Z,9.90
2019-02-28T00:50:47.002Z,9.92
2019-02-28T00:51:46.982Z,9.94
2019-02-28T00:52:46.959Z,9.99
2019-02-28T00:53:46.936Z,10.00
2019-02-28T00:54:46.918Z,9.94
2019-02-28T00:55:47.065Z,9.92
2019-02-28T00:56:51.625Z,9.94
2019-02-28T00:57:46.848Z,9.94
2019-02-28T00:58:46.833Z,9.94
2019-02-28T00:59:46.814Z,9.90
2019-02-28T01:00:46.780Z,9.82
2019-02-28T01:01:46.863Z,9.81
2019-02-28T01:02:52.135Z,9.87
2019-02-28T01:03:46.712Z,9.77
2019-02-28T01:04:46.691Z,9.84
2019-02-28T01:05:46.670Z,9.76
2019-02-28T01:06:46.650Z,9.82
2019-02-28T01:07:48.298Z,9.85
2019-02-28T01:08:46.602Z,9.82
2019-02-28T01:09:46.588Z,9.85
2019-02-28T01:10:46.567Z,9.85
2019-02-28T01:11:46.534Z,9.84
2019-02-28T01:12:46.515Z,9.77
2019-02-28T01:13:46.490Z,9.74
2019-02-28T01:14:46.468Z,9.74
2019-02-28T01:15:46.470Z,9.77
2019-02-28T01:16:46.423Z,9.81
2019-02-28T01:17:46.409Z,9.73
2019-02-28T01:18:46.381Z,9.70
2019-02-28T01:19:46.356Z,9.69
2019-02-28T01:20:49.956Z,9.69
2019-02-28T01:21:46.315Z,9.59
2019-02-28T01:22:46.300Z,9.63
2019-02-28T01:23:46.270Z,9.64
2019-02-28T01:24:46.243Z,9.63
2019-02-28T01:25:46.220Z,9.58
2019-02-28T01:26:46.705Z,9.62
2019-02-28T01:27:46.188Z,9.62
2019-02-28T01:28:46.153Z,9.55
2019-02-28T01:29:46.129Z,9.56
2019-02-28T01:30:46.107Z,9.51
2019-02-28T01:31:46.085Z,9.44
2019-02-28T01:32:49.971Z,9.44
2019-02-28T01:33:46.042Z,9.51
2019-02-28T01:34:46.019Z,9.52
2019-02-28T01:35:45.995Z,9.45
2019-02-28T01:36:48.708Z,9.49
2019-02-28T01:37:45.950Z,9.45
2019-02-28T01:38:45.934Z,9.40
2019-02-28T01:39:45.969Z,9.40
2019-02-28T01:40:45.887Z,9.37
2019-02-28T01:41:45.942Z,9.48
2019-02-28T01:42:45.837Z,9.51
2019-02-28T01:43:45.814Z,9.44
2019-02-28T01:44:45.791Z,9.42
2019-02-28T01:45:45.768Z,9.42
2019-02-28T01:46:48.541Z,9.45
2019-02-28T01:47:45.726Z,9.31
2019-02-28T01:48:45.702Z,9.39
2019-02-28T01:49:45.678Z,9.34
2019-02-28T01:50:45.655Z,9.30
2019-02-28T01:51:45.633Z,9.29
2019-02-28T01:52:46.198Z,9.19
2019-02-28T01:53:45.586Z,9.21
2019-02-28T01:54:45.564Z,9.19
2019-02-28T01:55:45.541Z,9.24
2019-02-28T01:56:45.525Z,9.15
2019-02-28T01:57:45.496Z,9.22
2019-02-28T01:58:47.604Z,9.18
2019-02-28T01:59:45.460Z,9.13
2019-02-28T02:00:45.479Z,9.11
2019-02-28T02:01:45.406Z,9.24
2019-02-28T02:02:45.382Z,9.16
2019-02-28T02:03:45.362Z,9.12
2019-02-28T02:04:45.774Z,9.18
2019-02-28T02:05:45.320Z,9.03
2019-02-28T02:06:45.293Z,9.15
2019-02-28T02:07:45.271Z,9.18
2019-02-28T02:08:45.248Z,9.05
2019-02-28T02:09:46.150Z,9.05
2019-02-28T02:10:45.203Z,9.09
2019-02-28T02:11:45.180Z,9.08
2019-02-28T02:12:45.165Z,9.03
2019-02-28T02:13:45.134Z,8.99
2019-02-28T02:14:45.804Z,9.02
2019-02-28T02:15:45.097Z,9.05
2019-02-28T02:16:45.082Z,8.95
2019-02-28T02:17:45.053Z,8.95
2019-02-28T02:18:45.018Z,8.99
2019-02-28T02:19:44.998Z,9.05
2019-02-28T02:20:44.974Z,9.00
2019-02-28T02:21:44.952Z,8.89
2019-02-28T02:22:45.435Z,9.00
2019-02-28T02:23:44.910Z,8.97
2019-02-28T02:24:44.883Z,9.00
2019-02-28T02:25:44.858Z,8.95
2019-02-28T02:26:45.140Z,8.95
2019-02-28T02:27:44.819Z,8.97
2019-02-28T02:28:44.792Z,8.93
2019-02-28T02:29:44.767Z,8.86
2019-02-28T02:30:50.523Z,8.99
2019-02-28T02:31:44.722Z,8.82
2019-02-28T02:32:44.701Z,8.97
2019-02-28T02:33:51.138Z,8.89
2019-02-28T02:34:44.661Z,8.97
2019-02-28T02:35:44.648Z,8.87
2019-02-28T02:36:44.613Z,8.89
2019-02-28T02:37:44.585Z,8.82
2019-02-28T02:38:44.561Z,8.86
2019-02-28T02:39:44.540Z,8.84
2019-02-28T02:40:44.517Z,8.82
2019-02-28T02:41:44.494Z,8.81
2019-02-28T02:42:48.637Z,8.82
2019-02-28T02:43:44.450Z,8.79
2019-02-28T02:44:44.426Z,8.89
2019-02-28T02:45:44.407Z,8.84
2019-02-28T02:46:44.387Z,8.74
2019-02-28T02:47:44.365Z,8.74
2019-02-28T02:48:44.334Z,8.77
2019-02-28T02:49:44.320Z,8.72
2019-02-28T02:50:44.290Z,8.72
2019-02-28T02:51:49.047Z,8.74
2019-02-28T02:52:44.242Z,8.77
2019-02-28T02:53:44.219Z,8.74
2019-02-28T02:54:44.195Z,8.72
2019-02-28T02:55:44.173Z,8.69
2019-02-28T02:56:44.151Z,8.68
2019-02-28T02:57:50.403Z,8.71
2019-02-28T02:58:44.158Z,8.63
2019-02-28T02:59:44.095Z,8.59
2019-02-28T03:00:49.759Z,8.63
2019-02-28T03:01:44.041Z,8.69
2019-02-28T03:02:44.041Z,8.68
2019-02-28T03:03:44.554Z,8.74
2019-02-28T03:04:43.976Z,8.68
2019-02-28T03:05:43.943Z,8.68
2019-02-28T03:06:45.874Z,8.63
2019-02-28T03:07:43.896Z,8.63
2019-02-28T03:08:43.876Z,8.60
2019-02-28T03:09:44.790Z,8.54
2019-02-28T03:10:43.837Z,8.59
2019-02-28T03:11:43.811Z,8.44
2019-02-28T03:12:43.791Z,8.45
2019-02-28T03:13:44.203Z,8.44
2019-02-28T03:14:43.735Z,8.42
2019-02-28T03:15:43.717Z,8.49
2019-02-28T03:16:43.691Z,8.41
2019-02-28T03:17:47.312Z,8.50
2019-02-28T03:18:43.644Z,8.49
2019-02-28T03:19:43.625Z,8.46
2019-02-28T03:20:43.606Z,8.49
2019-02-28T03:21:47.764Z,8.46
2019-02-28T03:22:43.550Z,8.42
2019-02-28T03:23:43.526Z,8.44
2019-02-28T03:24:50.711Z,8.49
2019-02-28T03:25:43.480Z,8.46
2019-02-28T03:26:43.493Z,8.45
2019-02-28T03:27:43.436Z,8.42
2019-02-28T03:28:43.414Z,8.49
2019-02-28T03:29:43.739Z,8.45
2019-02-28T03:30:43.365Z,8.35
2019-02-28T03:31:54.979Z,8.31
2019-02-28T03:32:43.420Z,8.32
2019-02-28T03:33:43.295Z,8.38
2019-02-28T03:34:54.840Z,8.23
2019-02-28T03:35:44.262Z,8.24
2019-02-28T03:36:43.227Z,8.26
2019-02-28T03:37:43.209Z,8.18
2019-02-28T03:38:48.568Z,8.18
2019-02-28T03:39:43.155Z,8.20
2019-02-28T03:40:43.141Z,8.18
2019-02-28T03:41:43.112Z,8.21
2019-02-28T03:42:43.086Z,8.18
2019-02-28T03:43:44.209Z,8.21
2019-02-28T03:44:43.048Z,8.21
2019-02-28T03:45:43.026Z,8.23
2019-02-28T03:46:46.294Z,8.17
2019-02-28T03:47:42.973Z,8.17
2019-02-28T03:48:42.948Z,8.21
2019-02-28T03:49:48.693Z,8.18
2019-02-28T03:50:42.901Z,8.08
2019-02-28T03:51:42.877Z,8.06
2019-02-28T03:52:44.784Z,8.14
2019-02-28T03:53:42.831Z,8.16
2019-02-28T03:54:42.806Z,8.08
2019-02-28T03:55:42.783Z,8.06
2019-02-28T03:56:42.761Z,8.05
2019-02-28T03:57:42.749Z,8.06
2019-02-28T03:58:43.129Z,8.01
2019-02-28T03:59:42.692Z,7.99
2019-02-28T04:00:42.667Z,7.99
2019-02-28T04:01:45.656Z,7.90
2019-02-28T04:02:42.624Z,7.95
2019-02-28T04:03:42.596Z,7.93
2019-02-28T04:04:48.449Z,7.96
2019-02-28T04:05:42.559Z,7.95
2019-02-28T04:06:42.526Z,7.95
2019-02-28T04:07:42.503Z,7.87
2019-02-28T04:08:42.482Z,8.01
2019-02-28T04:09:44.178Z,7.88
2019-02-28T04:10:42.443Z,7.95
2019-02-28T04:11:42.410Z,8.02
2019-02-28T04:12:45.655Z,7.88
2019-02-28T04:13:42.360Z,7.98
2019-02-28T04:14:42.337Z,7.98
2019-02-28T04:15:47.652Z,8.02
2019-02-28T04:16:42.295Z,8.02
2019-02-28T04:17:42.271Z,7.96
2019-02-28T04:18:46.094Z,7.88
2019-02-28T04:19:42.219Z,8.03
2019-02-28T04:20:42.217Z,8.02
2019-02-28T04:21:46.252Z,7.88
2019-02-28T04:22:42.155Z,7.98
2019-02-28T04:23:42.154Z,7.93
2019-02-28T04:24:46.209Z,7.93
2019-02-28T04:25:42.084Z,7.95
2019-02-28T04:26:42.061Z,7.90
2019-02-28T04:27:42.112Z,7.98
2019-02-28T04:28:42.007Z,7.91
2019-02-28T04:29:41.982Z,7.88
2019-02-28T04:30:43.717Z,7.85
2019-02-28T04:31:41.940Z,7.88
2019-02-28T04:32:41.923Z,7.80
2019-02-28T04:33:41.887Z,7.78
2019-02-28T04:34:41.864Z,7.70
2019-02-28T04:35:41.844Z,7.77
2019-02-28T04:36:41.819Z,7.81
2019-02-28T04:37:46.839Z,7.78
2019-02-28T04:38:41.771Z,7.69
2019-02-28T04:39:41.747Z,7.78
2019-02-28T04:40:41.726Z,7.75
2019-02-28T04:41:41.697Z,7.72
2019-02-28T04:42:41.674Z,7.72
2019-02-28T04:43:44.420Z,7.77
2019-02-28T04:44:41.626Z,7.70
2019-02-28T04:45:41.603Z,7.75
2019-02-28T04:46:41.591Z,7.75
2019-02-28T04:47:41.807Z,7.74
2019-02-28T04:48:41.534Z,7.64
2019-02-28T04:49:41.509Z,7.70
2019-02-28T04:50:41.486Z,7.67
2019-02-28T04:51:41.462Z,7.67
2019-02-28T04:52:46.527Z,7.64
2019-02-28T04:53:41.412Z,7.66
2019-02-28T04:54:41.392Z,7.62
2019-02-28T04:55:41.372Z,7.69
2019-02-28T04:56:42.372Z,7.66
2019-02-28T04:57:41.317Z,7.72
2019-02-28T04:58:41.296Z,7.61
2019-02-28T04:59:41.283Z,7.62
2019-02-28T05:00:41.264Z,7.66
2019-02-28T05:01:41.223Z,7.67
2019-02-28T05:02:41.212Z,7.61
2019-02-28T05:03:41.176Z,7.62
2019-02-28T05:04:41.161Z,7.67
2019-02-28T05:05:41.136Z,7.69
2019-02-28T05:06:41.104Z,7.69
2019-02-28T05:07:41.087Z,7.61
2019-02-28T05:08:41.098Z,7.64
2019-02-28T05:09:41.044Z,7.64
2019-02-28T05:10:41.134Z,7.67
2019-02-28T05:11:40.986Z,7.62
2019-02-28T05:12:41.232Z,7.59
2019-02-28T05:13:41.233Z,7.62
2019-02-28T05:14:40.913Z,7.51
2019-02-28T05:15:41.171Z,7.51
2019-02-28T05:16:46.883Z,7.59
2019-02-28T05:17:40.841Z,7.48
2019-02-28T05:18:40.825Z,7.62
2019-02-28T05:19:40.801Z,7.50
2019-02-28T05:20:45.152Z,7.50
2019-02-28T05:21:40.747Z,7.44
2019-02-28T05:22:40.728Z,7.41
2019-02-28T05:23:40.698Z,7.43
2019-02-28T05:24:42.561Z,7.39
2019-02-28T05:25:40.651Z,7.43
2019-02-28T05:26:40.625Z,7.40
2019-02-28T05:27:40.603Z,7.44
2019-02-28T05:28:41.388Z,7.44
2019-02-28T05:29:43.863Z,7.39
2019-02-28T05:30:41.536Z,7.47
2019-02-28T05:31:40.507Z,7.31
2019-02-28T05:32:40.483Z,7.29
2019-02-28T05:33:41.925Z,7.32
2019-02-28T05:34:40.452Z,7.32
2019-02-28T05:35:40.428Z,7.43
2019-02-28T05:36:40.389Z,7.31
2019-02-28T05:37:46.945Z,7.29
2019-02-28T05:38:40.356Z,7.29
2019-02-28T05:39:40.316Z,7.28
2019-02-28T05:40:41.313Z,7.31
2019-02-28T05:41:40.266Z,7.31
2019-02-28T05:42:40.243Z,7.26
2019-02-28T05:43:40.227Z,7.29
2019-02-28T05:44:40.888Z,7.26
2019-02-28T05:45:40.179Z,7.28
2019-02-28T05:46:40.146Z,7.28
2019-02-28T05:47:46.167Z,7.28
2019-02-28T05:48:40.104Z,7.31
2019-02-28T05:49:41.081Z,7.25
2019-02-28T05:50:40.051Z,7.22
2019-02-28T05:51:40.045Z,7.22
2019-02-28T05:52:40.006Z,7.32
2019-02-28T05:53:41.378Z,7.22
2019-02-28T05:54:39.955Z,7.26
2019-02-28T05:55:39.934Z,7.26
2019-02-28T05:56:39.914Z,7.19
2019-02-28T05:57:43.425Z,7.26
2019-02-28T05:58:39.859Z,7.26
2019-02-28T05:59:39.843Z,7.19
2019-02-28T06:00:39.810Z,7.08
2019-02-28T06:01:39.787Z,7.22
2019-02-28T06:02:39.761Z,7.14
2019-02-28T06:03:39.746Z,7.19
2019-02-28T06:04:39.719Z,7.22
2019-02-28T06:05:39.697Z,7.14
2019-02-28T06:06:39.665Z,7.15
2019-02-28T06:07:39.639Z,7.13
2019-02-28T06:08:40.028Z,7.14
2019-02-28T06:09:39.601Z,7.23
2019-02-28T06:10:39.568Z,7.18
2019-02-28T06:11:39.544Z,7.13
2019-02-28T06:12:40.511Z,7.15
2019-02-28T06:13:39.498Z,7.15
2019-02-28T06:14:39.473Z,7.18
2019-02-28T06:15:39.459Z,7.18
2019-02-28T06:16:39.431Z,7.19
2019-02-28T06:17:39.399Z,7.18
2019-02-28T06:18:39.383Z,7.18
2019-02-28T06:19:40.261Z,7.13
2019-02-28T06:20:39.327Z,7.11
2019-02-28T06:21:39.302Z,7.07
2019-02-28T06:22:39.278Z,7.08
2019-02-28T06:23:40.718Z,7.05
2019-02-28T06:24:39.236Z,7.07
2019-02-28T06:25:39.237Z,7.13
2019-02-28T06:26:39.185Z,7.05
2019-02-28T06:27:41.868Z,7.05
2019-02-28T06:28:39.137Z,7.10
2019-02-28T06:29:39.111Z,7.10
2019-02-28T06:30:41.413Z,7.05
2019-02-28T06:31:39.062Z,7.08
2019-02-28T06:32:39.042Z,7.05
2019-02-28T06:33:39.011Z,7.13
2019-02-28T06:34:39.396Z,7.14
2019-02-28T06:35:38.965Z,7.07
2019-02-28T06:36:38.939Z,7.10
2019-02-28T06:37:39.220Z,7.14
2019-02-28T06:38:38.897Z,7.14
2019-02-28T06:39:38.868Z,7.11
2019-02-28T06:40:38.845Z,7.19
2019-02-28T06:41:39.923Z,7.21
2019-02-28T06:42:38.795Z,7.19
2019-02-28T06:43:38.770Z,7.21
2019-02-28T06:44:38.747Z,7.21
2019-02-28T06:45:38.725Z,7.21
2019-02-28T06:46:39.819Z,7.19
2019-02-28T06:47:39.110Z,7.26
2019-02-28T06:48:38.656Z,7.23
2019-02-28T06:49:41.830Z,7.22
2019-02-28T06:50:38.602Z,7.11
2019-02-28T06:51:38.593Z,7.18
2019-02-28T06:52:38.553Z,7.19
2019-02-28T06:53:38.533Z,7.22
2019-02-28T06:54:39.933Z,7.19
2019-02-28T06:55:38.481Z,7.21
2019-02-28T06:56:38.455Z,7.21
2019-02-28T06:57:38.432Z,7.28
2019-02-28T06:58:38.408Z,7.33
2019-02-28T06:59:39.134Z,7.25
2019-02-28T07:00:38.366Z,7.33
2019-02-28T07:01:38.335Z,7.31
2019-02-28T07:02:38.359Z,7.26
2019-02-28T07:03:38.788Z,7.26
2019-02-28T07:04:38.269Z,7.28
2019-02-28T07:05:38.239Z,7.37
2019-02-28T07:06:38.225Z,7.48
2019-02-28T07:07:38.193Z,7.43
2019-02-28T07:08:38.168Z,7.41
2019-02-28T07:09:38.145Z,7.41
2019-02-28T07:10:38.120Z,7.46
2019-02-28T07:11:38.116Z,7.40
2019-02-28T07:12:38.072Z,7.48
2019-02-28T07:13:39.974Z,7.48
2019-02-28T07:14:38.024Z,7.53
2019-02-28T07:15:38.016Z,7.56
2019-02-28T07:16:38.117Z,7.53
2019-02-28T07:17:38.053Z,7.51
2019-02-28T07:18:37.932Z,7.55
2019-02-28T07:19:37.908Z,7.58
2019-02-28T07:20:37.883Z,7.66
2019-02-28T07:21:42.907Z,7.67
2019-02-28T07:22:39.967Z,7.64
2019-02-28T07:23:37.813Z,7.69
2019-02-28T07:24:38.240Z,7.72
2019-02-28T07:25:37.765Z,7.78
2019-02-28T07:26:37.743Z,7.72
2019-02-28T07:27:37.722Z,7.74
2019-02-28T07:28:37.850Z,7.75
2019-02-28T07:29:37.670Z,7.67
2019-02-28T07:30:37.663Z,7.70
2019-02-28T07:31:37.624Z,7.74
2019-02-28T07:32:37.599Z,7.72
2019-02-28T07:33:37.622Z,7.74
2019-02-28T07:34:37.556Z,7.74
2019-02-28T07:35:37.530Z,7.77
2019-02-28T07:36:37.507Z,7.74
2019-02-28T07:37:37.496Z,7.70
2019-02-28T07:38:37.465Z,7.77
2019-02-28T07:39:40.460Z,7.74
2019-02-28T07:40:37.412Z,7.80
2019-02-28T07:41:37.387Z,7.85
2019-02-28T07:42:37.668Z,7.87
2019-02-28T07:43:37.827Z,7.87
2019-02-28T07:44:38.101Z,7.93
2019-02-28T07:45:37.296Z,7.90
2019-02-28T07:46:38.792Z,8.01
2019-02-28T07:47:37.260Z,7.95
2019-02-28T07:48:37.235Z,8.08
2019-02-28T07:49:37.203Z,8.13
2019-02-28T07:50:37.231Z,8.17
2019-02-28T07:51:37.156Z,8.13
2019-02-28T07:52:37.139Z,7.98
2019-02-28T07:53:37.116Z,8.08
2019-02-28T07:54:37.086Z,8.09
2019-02-28T07:55:37.066Z,7.95
2019-02-28T07:56:42.479Z,7.95
2019-02-28T07:57:37.018Z,8.08
2019-02-28T07:58:36.997Z,8.17
2019-02-28T07:59:40.937Z,8.13
2019-02-28T08:00:36.957Z,8.05
2019-02-28T08:01:36.931Z,7.93
2019-02-28T08:02:39.275Z,8.09
2019-02-28T08:03:36.895Z,8.20
2019-02-28T08:04:36.859Z,8.18
2019-02-28T08:05:36.854Z,8.24
2019-02-28T08:06:39.401Z,8.27
2019-02-28T08:07:36.795Z,8.31
2019-02-28T08:08:36.769Z,8.42
2019-02-28T08:09:40.678Z,8.50
2019-02-28T08:10:36.722Z,8.45
2019-02-28T08:11:36.731Z,8.63
2019-02-28T08:12:36.682Z,8.61
2019-02-28T08:13:37.854Z,8.60
2019-02-28T08:14:36.635Z,8.60
2019-02-28T08:15:36.610Z,8.69
2019-02-28T08:16:36.586Z,8.86
2019-02-28T08:17:36.574Z,8.86
2019-02-28T08:18:36.551Z,8.89
2019-02-28T08:19:36.522Z,8.89
2019-02-28T08:20:36.497Z,8.78
2019-02-28T08:21:36.524Z,8.86
2019-02-28T08:22:36.453Z,8.87
2019-02-28T08:23:37.584Z,8.92
2019-02-28T08:24:36.693Z,8.90
2019-02-28T08:25:39.573Z,8.95
2019-02-28T08:26:36.374Z,8.95
2019-02-28T08:27:36.350Z,9.09
2019-02-28T08:28:36.976Z,8.95
2019-02-28T08:29:36.300Z,9.08
2019-02-28T08:30:36.275Z,9.08
2019-02-28T08:31:36.255Z,9.15
2019-02-28T08:32:36.234Z,9.22
2019-02-28T08:33:36.226Z,9.24
2019-02-28T08:34:36.189Z,9.29
2019-02-28T08:35:36.166Z,9.30
2019-02-28T08:36:36.145Z,9.29
2019-02-28T08:37:36.123Z,9.33
2019-02-28T08:38:36.105Z,9.40
2019-02-28T08:39:36.080Z,9.27
2019-02-28T08:40:36.060Z,9.24
2019-02-28T08:41:36.035Z,9.19
2019-02-28T08:42:39.642Z,9.39
2019-02-28T08:43:35.998Z,9.58
2019-02-28T08:44:35.976Z,9.59
2019-02-28T08:45:35.950Z,9.56
2019-02-28T08:46:35.934Z,9.81
2019-02-28T08:47:35.907Z,9.80
2019-02-28T08:48:35.894Z,9.84
2019-02-28T08:49:41.899Z,9.82
2019-02-28T08:50:35.845Z,9.87
2019-02-28T08:51:35.823Z,9.94
2019-02-28T08:52:37.591Z,9.99
2019-02-28T08:53:35.780Z,10.13
2019-02-28T08:54:35.767Z,10.15
2019-02-28T08:55:38.463Z,10.17
2019-02-28T08:56:35.719Z,10.27
2019-02-28T08:57:35.700Z,10.33
2019-02-28T08:58:37.646Z,10.45
2019-02-28T08:59:35.671Z,10.58
2019-02-28T09:00:37.634Z,10.89
2019-02-28T09:01:40.031Z,11.02
2019-02-28T09:02:35.607Z,11.31
2019-02-28T09:03:35.591Z,11.52
2019-02-28T09:04:41.204Z,11.58
2019-02-28T09:05:35.536Z,11.60
2019-02-28T09:06:37.869Z,11.59
2019-02-28T09:07:35.497Z,11.62
2019-02-28T09:08:35.475Z,11.40
2019-02-28T09:09:35.456Z,11.33
2019-02-28T09:10:37.420Z,11.22
2019-02-28T09:11:35.626Z,11.23
2019-02-28T09:12:35.398Z,11.26
2019-02-28T09:13:35.385Z,11.20
2019-02-28T09:14:35.358Z,11.08
2019-02-28T09:15:35.340Z,11.01
2019-02-28T09:16:36.744Z,11.00
2019-02-28T09:17:35.309Z,10.87
2019-02-28T09:18:35.291Z,11.10
2019-02-28T09:19:36.037Z,11.35
2019-02-28T09:20:35.245Z,11.62
2019-02-28T09:21:35.234Z,11.91
2019-02-28T09:22:35.207Z,12.05
2019-02-28T09:23:37.574Z,11.93
2019-02-28T09:24:35.176Z,12.21
2019-02-28T09:25:35.150Z,12.45
2019-02-28T09:26:35.132Z,12.36
2019-02-28T09:27:35.291Z,12.48
2019-02-28T09:28:35.095Z,12.43
2019-02-28T09:29:35.077Z,12.18
2019-02-28T09:30:35.059Z,11.99
2019-02-28T09:31:38.634Z,11.59
2019-02-28T09:32:35.022Z,11.40
2019-02-28T09:33:35.004Z,11.26
2019-02-28T09:34:34.985Z,11.20
2019-02-28T09:35:34.968Z,11.35
2019-02-28T09:36:34.958Z,11.43
2019-02-28T09:37:34.947Z,11.35
2019-02-28T09:38:34.915Z,11.53
2019-02-28T09:39:34.895Z,11.65
2019-02-28T09:40:34.881Z,11.60
2019-02-28T09:41:36.438Z,11.44
2019-02-28T09:42:34.846Z,11.71
2019-02-28T09:43:34.827Z,12.14
2019-02-28T09:44:34.801Z,12.40
2019-02-28T09:45:34.792Z,12.91
2019-02-28T09:46:34.992Z,12.75
2019-02-28T09:47:34.751Z,12.91
2019-02-28T09:48:37.270Z,13.46
2019-02-28T09:49:34.710Z,13.42
2019-02-28T09:50:34.692Z,13.54
2019-02-28T09:51:34.692Z,13.40
2019-02-28T09:52:34.658Z,13.12
2019-02-28T09:53:34.639Z,12.73
2019-02-28T09:54:34.631Z,12.36
2019-02-28T09:55:35.572Z,12.03
2019-02-28T09:56:34.593Z,11.97
2019-02-28T09:57:34.572Z,12.03
2019-02-28T09:58:34.554Z,11.99
2019-02-28T09:59:37.821Z,12.11
2019-02-28T10:00:34.522Z,12.21
2019-02-28T10:01:34.505Z,12.12
2019-02-28T10:02:34.487Z,11.97
2019-02-28T10:03:34.713Z,12.15
2019-02-28T10:04:34.450Z,12.10
2019-02-28T10:05:34.434Z,11.81
2019-02-28T10:06:34.416Z,11.83
2019-02-28T10:07:34.407Z,12.17
2019-02-28T10:08:36.619Z,12.62
2019-02-28T10:09:34.372Z,13.26
2019-02-28T10:10:34.351Z,13.87
2019-02-28T10:11:34.329Z,14.25
2019-02-28T10:12:34.316Z,14.66
2019-02-28T10:13:34.296Z,14.58
2019-02-28T10:14:34.674Z,14.97
2019-02-28T10:15:34.262Z,15.37
2019-02-28T10:16:34.254Z,15.63
2019-02-28T10:17:34.237Z,15.73
2019-02-28T10:18:35.471Z,15.98
2019-02-28T10:19:43.057Z,16.08
2019-02-28T10:20:34.181Z,16.03
2019-02-28T10:21:36.497Z,16.08
2019-02-28T10:22:34.149Z,15.92
2019-02-28T10:23:34.135Z,15.75
2019-02-28T10:24:34.118Z,15.62
2019-02-28T10:25:34.104Z,15.51
2019-02-28T10:26:34.095Z,15.25
2019-02-28T10:27:34.072Z,15.41
2019-02-28T10:28:34.058Z,15.47
2019-02-28T10:29:34.043Z,15.76
2019-02-28T10:30:34.030Z,15.92
2019-02-28T10:31:37.347Z,15.80
2019-02-28T10:32:33.999Z,15.90
2019-02-28T10:33:33.982Z,15.99
2019-02-28T10:34:35.373Z,16.09
2019-02-28T10:35:36.713Z,15.96
2019-02-28T10:36:33.944Z,16.31
2019-02-28T10:37:35.601Z,16.26
2019-02-28T10:38:33.998Z,16.62
2019-02-28T10:39:33.916Z,16.64
2019-02-28T10:40:33.886Z,16.49
2019-02-28T10:41:33.867Z,16.86
2019-02-28T10:42:33.854Z,17.31
2019-02-28T10:43:33.842Z,17.27
2019-02-28T10:44:33.828Z,16.84
2019-02-28T10:45:33.812Z,16.58
2019-02-28T10:46:33.799Z,16.54
2019-02-28T10:47:33.795Z,16.10
2019-02-28T10:48:35.264Z,15.80
2019-02-28T10:49:37.588Z,15.78
2019-02-28T10:50:33.764Z,15.69
2019-02-28T10:51:33.730Z,15.57
2019-02-28T10:52:33.717Z,15.54
2019-02-28T10:53:36.363Z,15.47
2019-02-28T10:54:33.686Z,15.45
2019-02-28T10:55:33.697Z,15.45
2019-02-28T10:56:33.658Z,15.43
2019-02-28T10:57:33.644Z,15.63
2019-02-28T10:58:33.628Z,15.69
2019-02-28T10:59:33.614Z,15.67
2019-02-28T11:00:33.747Z,15.81
2019-02-28T11:01:33.593Z,15.84
2019-02-28T11:02:33.573Z,15.75
2019-02-28T11:03:33.557Z,15.62
2019-02-28T11:04:33.558Z,15.80
2019-02-28T11:05:33.528Z,15.75
2019-02-28T11:06:33.513Z,15.83
2019-02-28T11:07:34.206Z,16.09
2019-02-28T11:08:33.488Z,16.02
2019-02-28T11:09:33.476Z,15.94
2019-02-28T11:10:35.472Z,15.92
2019-02-28T11:11:33.440Z,15.98
2019-02-28T11:12:33.431Z,15.73
2019-02-28T11:13:33.412Z,15.72
2019-02-28T11:14:35.523Z,15.90
2019-02-28T11:15:33.382Z,16.03
2019-02-28T11:16:33.373Z,16.13
2019-02-28T11:17:34.229Z,15.99
2019-02-28T11:18:33.341Z,16.16
2019-02-28T11:19:33.324Z,16.50
2019-02-28T11:20:33.347Z,16.31
2019-02-28T11:21:33.296Z,16.47
2019-02-28T11:22:33.283Z,16.36
2019-02-28T11:23:33.272Z,16.43
2019-02-28T11:24:33.259Z,16.49
2019-02-28T11:25:35.520Z,16.61
2019-02-28T11:26:33.224Z,16.77
2019-02-28T11:27:33.209Z,16.74
2019-02-28T11:28:33.204Z,16.77
2019-02-28T11:29:35.087Z,17.13
2019-02-28T11:30:33.169Z,17.04
2019-02-28T11:31:33.157Z,17.10
2019-02-28T11:32:33.153Z,17.07
2019-02-28T11:33:33.125Z,16.79
2019-02-28T11:34:33.111Z,16.76
2019-02-28T11:35:33.096Z,16.43
2019-02-28T11:36:34.179Z,16.31
2019-02-28T11:37:33.067Z,16.16
2019-02-28T11:38:33.054Z,16.17
2019-02-28T11:39:33.802Z,16.13
2019-02-28T11:40:33.033Z,16.37
2019-02-28T11:41:33.009Z,16.76
2019-02-28T11:42:32.998Z,16.46
2019-02-28T11:43:37.506Z,16.25
2019-02-28T11:44:32.967Z,16.39
2019-02-28T11:45:32.955Z,16.79
2019-02-28T11:46:35.616Z,17.17
2019-02-28T11:47:32.937Z,17.07
2019-02-28T11:48:32.912Z,17.22
2019-02-28T11:49:32.901Z,17.39
2019-02-28T11:50:32.880Z,16.97
2019-02-28T11:51:32.873Z,16.49
2019-02-28T11:52:32.851Z,15.87
2019-02-28T11:53:32.867Z,15.44
2019-02-28T11:54:32.830Z,15.35
2019-02-28T11:55:32.807Z,15.44
2019-02-28T11:56:32.794Z,15.45
2019-02-28T11:57:32.785Z,15.36
2019-02-28T11:58:32.763Z,15.36
2019-02-28T11:59:32.749Z,15.23
2019-02-28T12:00:35.681Z,15.22
2019-02-28T12:01:32.734Z,15.10
2019-02-28T12:02:32.702Z,15.05
2019-02-28T12:03:35.528Z,15.04
2019-02-28T12:04:32.686Z,15.25
2019-02-28T12:05:32.668Z,15.29
2019-02-28T12:06:32.650Z,15.27
2019-02-28T12:07:34.867Z,15.18
2019-02-28T12:08:32.611Z,14.89
2019-02-28T12:09:32.610Z,14.79
2019-02-28T12:10:32.580Z,14.94
2019-02-28T12:11:33.532Z,15.05
2019-02-28T12:12:32.546Z,14.93
2019-02-28T12:13:32.532Z,14.85
2019-02-28T12:14:32.514Z,14.90
2019-02-28T12:15:32.506Z,14.97
2019-02-28T12:16:32.482Z,15.18
2019-02-28T12:17:32.466Z,15.05
2019-02-28T12:18:32.454Z,14.90
2019-02-28T12:19:32.434Z,14.86
2019-02-28T12:20:32.419Z,14.90
2019-02-28T12:21:35.263Z,14.87
2019-02-28T12:22:32.385Z,14.97
2019-02-28T12:23:32.432Z,14.97
2019-02-28T12:24:33.172Z,15.04
2019-02-28T12:25:32.361Z,14.93
2019-02-28T12:26:32.328Z,14.90
2019-02-28T12:27:32.308Z,14.90
2019-02-28T12:28:35.259Z,14.92
2019-02-28T12:29:32.273Z,14.89
2019-02-28T12:30:32.269Z,14.77
2019-02-28T12:31:35.548Z,14.55
2019-02-28T12:32:32.226Z,14.53
2019-02-28T12:33:32.208Z,14.59
2019-02-28T12:34:32.191Z,14.52
2019-02-28T12:35:37.554Z,14.41
2019-02-28T12:36:32.162Z,14.53
2019-02-28T12:37:32.144Z,14.63
2019-02-28T12:38:32.126Z,14.82
2019-02-28T12:39:33.385Z,14.87
2019-02-28T12:40:32.097Z,14.97
2019-02-28T12:41:32.079Z,15.14
2019-02-28T12:42:34.630Z,15.02
2019-02-28T12:43:32.053Z,14.74
2019-02-28T12:44:32.027Z,14.78
2019-02-28T12:45:32.011Z,14.70
2019-02-28T12:46:32.715Z,14.70
2019-02-28T12:47:31.979Z,14.73
2019-02-28T12:48:31.962Z,14.74
2019-02-28T12:49:31.954Z,14.90
2019-02-28T12:50:31.932Z,15.00
2019-02-28T12:51:31.924Z,15.12
2019-02-28T12:52:31.903Z,15.22
2019-02-28T12:53:32.552Z,15.36
2019-02-28T12:54:33.408Z,15.26
2019-02-28T12:55:31.852Z,15.23
2019-02-28T12:56:31.855Z,15.22
2019-02-28T12:57:31.822Z,15.18
2019-02-28T12:58:38.710Z,15.15
2019-02-28T12:59:31.779Z,15.18
2019-02-28T13:00:31.773Z,15.05
2019-02-28T13:01:33.095Z,14.92
2019-02-28T13:02:31.735Z,15.04
2019-02-28T13:03:31.714Z,14.74
2019-02-28T13:04:32.585Z,14.71
2019-02-28T13:05:31.681Z,14.71
2019-02-28T13:06:31.765Z,14.73
2019-02-28T13:07:33.856Z,14.66
2019-02-28T13:08:31.639Z,14.70